sensor_id;sensor_type;location;lat;lon;timestamp;P1;durP1;ratioP1;P2;durP2;ratioP2
12232;SDS011;6179;51.748;8.728;2024-02-21T00:00:28;22.93;;;5.80;;
12232;SDS011;6179;51.748;8.728;2024-02-21T00:06:28;12.67;;;4.60;;
12232;SDS011;6179;51.748;8.728;2024-02-21T00:12:29;23.03;;;6.50;;
12232;SDS011;6179;51.748;8.728;2024-02-21T00:18:30;18.43;;;7.30;;
12232;SDS011;6179;51.748;8.728;2024-02-21T00:24:30;15.17;;;4.77;;
12232;SDS011;6179;51.748;8.728;2024-02-21T00:30:31;28.27;;;7.13;;
12232;SDS011;6179;51.748;8.728;2024-02-21T00:36:32;30.70;;;7.70;;
12232;SDS011;6179;51.748;8.728;2024-02-21T00:42:32;21.73;;;5.50;;
12232;SDS011;6179;51.748;8.728;2024-02-21T00:48:33;46.90;;;9.33;;
12232;SDS011;6179;51.748;8.728;2024-02-21T00:54:34;12.80;;;6.13;;
12232;SDS011;6179;51.748;8.728;2024-02-21T01:00:34;11.93;;;6.47;;
12232;SDS011;6179;51.748;8.728;2024-02-21T01:06:35;26.03;;;7.70;;
12232;SDS011;6179;51.748;8.728;2024-02-21T01:12:36;20.10;;;6.83;;
12232;SDS011;6179;51.748;8.728;2024-02-21T01:18:37;28.53;;;6.53;;
12232;SDS011;6179;51.748;8.728;2024-02-21T01:24:39;21.90;;;6.67;;
12232;SDS011;6179;51.748;8.728;2024-02-21T01:30:40;21.43;;;8.77;;
12232;SDS011;6179;51.748;8.728;2024-02-21T01:36:40;21.47;;;8.63;;
12232;SDS011;6179;51.748;8.728;2024-02-21T01:42:42;27.87;;;8.57;;
12232;SDS011;6179;51.748;8.728;2024-02-21T01:48:42;19.03;;;8.30;;
12232;SDS011;6179;51.748;8.728;2024-02-21T01:54:46;17.30;;;7.40;;
12232;SDS011;6179;51.748;8.728;2024-02-21T02:00:47;25.23;;;8.93;;
12232;SDS011;6179;51.748;8.728;2024-02-21T02:06:48;25.63;;;8.33;;
12232;SDS011;6179;51.748;8.728;2024-02-21T02:12:50;18.73;;;7.33;;
12232;SDS011;6179;51.748;8.728;2024-02-21T02:18:51;14.80;;;8.37;;
12232;SDS011;6179;51.748;8.728;2024-02-21T02:24:51;22.17;;;7.60;;
12232;SDS011;6179;51.748;8.728;2024-02-21T02:30:52;25.07;;;7.37;;
12232;SDS011;6179;51.748;8.728;2024-02-21T02:36:53;25.83;;;7.00;;
12232;SDS011;6179;51.748;8.728;2024-02-21T02:42:54;22.23;;;6.90;;
12232;SDS011;6179;51.748;8.728;2024-02-21T02:48:55;14.07;;;6.37;;
12232;SDS011;6179;51.748;8.728;2024-02-21T02:54:56;23.87;;;6.77;;
12232;SDS011;6179;51.748;8.728;2024-02-21T03:00:56;18.70;;;7.50;;
12232;SDS011;6179;51.748;8.728;2024-02-21T03:06:57;37.93;;;7.90;;
12232;SDS011;6179;51.748;8.728;2024-02-21T03:12:57;15.07;;;6.67;;
12232;SDS011;6179;51.748;8.728;2024-02-21T03:18:58;35.37;;;6.90;;
12232;SDS011;6179;51.748;8.728;2024-02-21T03:24:59;17.00;;;6.77;;
12232;SDS011;6179;51.748;8.728;2024-02-21T03:31:00;15.50;;;5.70;;
12232;SDS011;6179;51.748;8.728;2024-02-21T03:37:00;13.63;;;6.37;;
12232;SDS011;6179;51.748;8.728;2024-02-21T03:43:01;11.43;;;5.80;;
12232;SDS011;6179;51.748;8.728;2024-02-21T03:49:02;10.53;;;6.70;;
12232;SDS011;6179;51.748;8.728;2024-02-21T03:55:02;17.20;;;5.20;;
12232;SDS011;6179;51.748;8.728;2024-02-21T04:01:03;9.03;;;4.20;;
12232;SDS011;6179;51.748;8.728;2024-02-21T04:07:05;9.93;;;6.47;;
12232;SDS011;6179;51.748;8.728;2024-02-21T04:13:06;24.30;;;8.70;;
12232;SDS011;6179;51.748;8.728;2024-02-21T04:19:07;12.90;;;6.93;;
12232;SDS011;6179;51.748;8.728;2024-02-21T04:25:08;24.17;;;4.87;;
12232;SDS011;6179;51.748;8.728;2024-02-21T04:31:09;25.07;;;5.30;;
12232;SDS011;6179;51.748;8.728;2024-02-21T04:37:09;18.63;;;5.00;;
12232;SDS011;6179;51.748;8.728;2024-02-21T04:43:10;16.13;;;3.97;;
12232;SDS011;6179;51.748;8.728;2024-02-21T04:49:10;11.53;;;3.70;;
12232;SDS011;6179;51.748;8.728;2024-02-21T04:55:11;14.67;;;5.87;;
12232;SDS011;6179;51.748;8.728;2024-02-21T05:01:12;20.60;;;5.70;;
12232;SDS011;6179;51.748;8.728;2024-02-21T05:07:12;13.50;;;4.30;;
12232;SDS011;6179;51.748;8.728;2024-02-21T05:13:13;25.47;;;6.07;;
12232;SDS011;6179;51.748;8.728;2024-02-21T05:19:13;10.13;;;3.83;;
12232;SDS011;6179;51.748;8.728;2024-02-21T05:25:14;10.43;;;4.83;;
12232;SDS011;6179;51.748;8.728;2024-02-21T05:31:15;22.50;;;6.37;;
12232;SDS011;6179;51.748;8.728;2024-02-21T05:37:16;18.40;;;4.67;;
12232;SDS011;6179;51.748;8.728;2024-02-21T05:43:17;7.33;;;3.80;;
12232;SDS011;6179;51.748;8.728;2024-02-21T05:49:17;6.20;;;3.67;;
12232;SDS011;6179;51.748;8.728;2024-02-21T05:55:18;19.63;;;4.00;;
12232;SDS011;6179;51.748;8.728;2024-02-21T06:01:18;8.83;;;3.50;;
12232;SDS011;6179;51.748;8.728;2024-02-21T06:07:21;7.27;;;4.53;;
12232;SDS011;6179;51.748;8.728;2024-02-21T06:13:21;8.10;;;4.73;;
12232;SDS011;6179;51.748;8.728;2024-02-21T06:19:23;9.40;;;3.93;;
12232;SDS011;6179;51.748;8.728;2024-02-21T06:25:24;16.00;;;4.93;;
12232;SDS011;6179;51.748;8.728;2024-02-21T06:31:25;23.30;;;6.20;;
12232;SDS011;6179;51.748;8.728;2024-02-21T06:37:25;14.67;;;4.30;;
12232;SDS011;6179;51.748;8.728;2024-02-21T06:43:26;10.40;;;4.73;;
12232;SDS011;6179;51.748;8.728;2024-02-21T06:49:26;7.43;;;3.50;;
12232;SDS011;6179;51.748;8.728;2024-02-21T06:55:27;29.80;;;4.70;;
12232;SDS011;6179;51.748;8.728;2024-02-21T07:01:28;14.43;;;5.03;;
12232;SDS011;6179;51.748;8.728;2024-02-21T07:07:29;4.73;;;2.93;;
12232;SDS011;6179;51.748;8.728;2024-02-21T07:13:29;8.40;;;4.47;;
12232;SDS011;6179;51.748;8.728;2024-02-21T07:19:30;7.07;;;4.67;;
12232;SDS011;6179;51.748;8.728;2024-02-21T07:25:31;15.27;;;5.30;;
12232;SDS011;6179;51.748;8.728;2024-02-21T07:31:31;6.00;;;4.23;;
12232;SDS011;6179;51.748;8.728;2024-02-21T07:37:41;12.30;;;4.33;;
12232;SDS011;6179;51.748;8.728;2024-02-21T07:43:42;11.90;;;5.17;;
12232;SDS011;6179;51.748;8.728;2024-02-21T07:49:45;13.80;;;4.40;;
12232;SDS011;6179;51.748;8.728;2024-02-21T07:55:46;10.70;;;3.77;;
12232;SDS011;6179;51.748;8.728;2024-02-21T08:01:47;7.90;;;3.83;;
12232;SDS011;6179;51.748;8.728;2024-02-21T08:07:48;11.80;;;5.30;;
12232;SDS011;6179;51.748;8.728;2024-02-21T08:13:48;7.57;;;5.73;;
12232;SDS011;6179;51.748;8.728;2024-02-21T08:19:49;10.13;;;4.30;;
12232;SDS011;6179;51.748;8.728;2024-02-21T08:25:52;11.93;;;3.40;;
12232;SDS011;6179;51.748;8.728;2024-02-21T08:31:53;3.80;;;2.40;;
12232;SDS011;6179;51.748;8.728;2024-02-21T08:37:54;7.10;;;2.40;;
12232;SDS011;6179;51.748;8.728;2024-02-21T08:43:54;9.80;;;4.90;;
12232;SDS011;6179;51.748;8.728;2024-02-21T08:49:55;6.60;;;2.43;;
12232;SDS011;6179;51.748;8.728;2024-02-21T08:55:56;7.50;;;2.07;;
12232;SDS011;6179;51.748;8.728;2024-02-21T09:01:56;9.23;;;2.23;;
12232;SDS011;6179;51.748;8.728;2024-02-21T09:07:57;13.90;;;2.23;;
12232;SDS011;6179;51.748;8.728;2024-02-21T09:13:57;1.67;;;1.40;;
12232;SDS011;6179;51.748;8.728;2024-02-21T09:19:58;5.17;;;1.87;;
12232;SDS011;6179;51.748;8.728;2024-02-21T09:26:03;5.73;;;2.27;;
12232;SDS011;6179;51.748;8.728;2024-02-21T09:32:04;9.13;;;3.50;;
12232;SDS011;6179;51.748;8.728;2024-02-21T09:38:05;8.50;;;3.90;;
12232;SDS011;6179;51.748;8.728;2024-02-21T09:44:06;12.87;;;4.53;;
12232;SDS011;6179;51.748;8.728;2024-02-21T09:50:09;16.20;;;6.73;;
12232;SDS011;6179;51.748;8.728;2024-02-21T09:56:10;8.53;;;4.33;;
12232;SDS011;6179;51.748;8.728;2024-02-21T10:02:12;26.57;;;5.40;;
12232;SDS011;6179;51.748;8.728;2024-02-21T10:08:14;21.73;;;5.10;;
12232;SDS011;6179;51.748;8.728;2024-02-21T10:14:15;9.57;;;5.53;;
12232;SDS011;6179;51.748;8.728;2024-02-21T10:20:15;7.33;;;3.80;;
12232;SDS011;6179;51.748;8.728;2024-02-21T10:26:17;8.33;;;3.60;;
12232;SDS011;6179;51.748;8.728;2024-02-21T10:32:19;12.90;;;3.80;;
12232;SDS011;6179;51.748;8.728;2024-02-21T10:38:19;10.43;;;3.67;;
12232;SDS011;6179;51.748;8.728;2024-02-21T10:44:20;4.97;;;2.50;;
12232;SDS011;6179;51.748;8.728;2024-02-21T10:50:22;2.53;;;1.70;;
12232;SDS011;6179;51.748;8.728;2024-02-21T10:56:29;5.90;;;1.90;;
12232;SDS011;6179;51.748;8.728;2024-02-21T11:02:40;1.93;;;1.23;;
12232;SDS011;6179;51.748;8.728;2024-02-21T11:08:42;4.63;;;1.37;;
12232;SDS011;6179;51.748;8.728;2024-02-21T11:14:42;1.60;;;1.50;;
12232;SDS011;6179;51.748;8.728;2024-02-21T11:20:49;1.40;;;0.90;;
12232;SDS011;6179;51.748;8.728;2024-02-21T11:26:51;5.13;;;1.13;;
12232;SDS011;6179;51.748;8.728;2024-02-21T11:32:58;1.63;;;0.87;;
12232;SDS011;6179;51.748;8.728;2024-02-21T11:39:04;2.87;;;0.97;;
12232;SDS011;6179;51.748;8.728;2024-02-21T11:45:06;18.20;;;1.40;;
12232;SDS011;6179;51.748;8.728;2024-02-21T11:51:08;4.70;;;0.80;;
12232;SDS011;6179;51.748;8.728;2024-02-21T11:57:10;1.33;;;0.80;;
12232;SDS011;6179;51.748;8.728;2024-02-21T12:03:11;2.63;;;0.93;;
12232;SDS011;6179;51.748;8.728;2024-02-21T12:09:18;3.33;;;0.80;;
12232;SDS011;6179;51.748;8.728;2024-02-21T12:15:18;7.10;;;1.00;;
12232;SDS011;6179;51.748;8.728;2024-02-21T12:21:19;3.73;;;0.70;;
12232;SDS011;6179;51.748;8.728;2024-02-21T12:27:24;1.00;;;0.60;;
12232;SDS011;6179;51.748;8.728;2024-02-21T12:33:26;13.50;;;0.60;;
12232;SDS011;6179;51.748;8.728;2024-02-21T12:39:27;2.00;;;0.70;;
12232;SDS011;6179;51.748;8.728;2024-02-21T12:45:28;4.10;;;1.07;;
12232;SDS011;6179;51.748;8.728;2024-02-21T12:51:32;7.73;;;0.87;;
12232;SDS011;6179;51.748;8.728;2024-02-21T12:57:33;6.77;;;1.53;;
12232;SDS011;6179;51.748;8.728;2024-02-21T13:03:33;6.93;;;1.13;;
12232;SDS011;6179;51.748;8.728;2024-02-21T13:09:34;2.03;;;0.80;;
12232;SDS011;6179;51.748;8.728;2024-02-21T13:15:35;13.80;;;1.07;;
12232;SDS011;6179;51.748;8.728;2024-02-21T13:21:37;3.90;;;1.17;;
12232;SDS011;6179;51.748;8.728;2024-02-21T13:27:38;6.90;;;1.43;;
12232;SDS011;6179;51.748;8.728;2024-02-21T13:33:38;15.23;;;0.80;;
12232;SDS011;6179;51.748;8.728;2024-02-21T13:39:39;4.03;;;0.80;;
12232;SDS011;6179;51.748;8.728;2024-02-21T13:45:40;2.50;;;1.20;;
12232;SDS011;6179;51.748;8.728;2024-02-21T13:51:42;3.90;;;0.90;;
12232;SDS011;6179;51.748;8.728;2024-02-21T13:57:44;4.03;;;0.90;;
12232;SDS011;6179;51.748;8.728;2024-02-21T14:03:45;1.90;;;0.60;;
12232;SDS011;6179;51.748;8.728;2024-02-21T14:09:46;4.43;;;1.20;;
12232;SDS011;6179;51.748;8.728;2024-02-21T14:15:46;7.73;;;0.87;;
12232;SDS011;6179;51.748;8.728;2024-02-21T14:21:48;5.00;;;1.17;;
12232;SDS011;6179;51.748;8.728;2024-02-21T14:27:48;0.50;;;0.50;;
12232;SDS011;6179;51.748;8.728;2024-02-21T14:33:49;8.23;;;0.80;;
12232;SDS011;6179;51.748;8.728;2024-02-21T14:39:49;5.60;;;0.93;;
12232;SDS011;6179;51.748;8.728;2024-02-21T14:45:50;5.20;;;0.70;;
12232;SDS011;6179;51.748;8.728;2024-02-21T14:51:50;73.73;;;22.93;;
12232;SDS011;6179;51.748;8.728;2024-02-21T14:57:52;2.40;;;0.83;;
12232;SDS011;6179;51.748;8.728;2024-02-21T15:03:53;10.77;;;1.20;;
12232;SDS011;6179;51.748;8.728;2024-02-21T15:09:53;5.00;;;1.47;;
12232;SDS011;6179;51.748;8.728;2024-02-21T15:15:54;10.80;;;1.30;;
12232;SDS011;6179;51.748;8.728;2024-02-21T15:21:55;2.00;;;1.00;;
12232;SDS011;6179;51.748;8.728;2024-02-21T15:27:55;8.90;;;1.47;;
12232;SDS011;6179;51.748;8.728;2024-02-21T15:33:56;6.73;;;1.00;;
12232;SDS011;6179;51.748;8.728;2024-02-21T15:39:56;3.67;;;1.33;;
12232;SDS011;6179;51.748;8.728;2024-02-21T15:45:58;3.73;;;1.83;;
12232;SDS011;6179;51.748;8.728;2024-02-21T15:51:59;8.33;;;1.23;;
12232;SDS011;6179;51.748;8.728;2024-02-21T15:57:59;7.47;;;1.43;;
12232;SDS011;6179;51.748;8.728;2024-02-21T16:04:00;1.97;;;1.10;;
12232;SDS011;6179;51.748;8.728;2024-02-21T16:10:01;10.10;;;1.13;;
12232;SDS011;6179;51.748;8.728;2024-02-21T16:16:02;10.73;;;0.83;;
12232;SDS011;6179;51.748;8.728;2024-02-21T16:22:03;2.83;;;1.20;;
12232;SDS011;6179;51.748;8.728;2024-02-21T16:28:05;6.53;;;0.80;;
12232;SDS011;6179;51.748;8.728;2024-02-21T16:34:07;4.20;;;1.00;;
12232;SDS011;6179;51.748;8.728;2024-02-21T16:40:08;8.80;;;1.03;;
12232;SDS011;6179;51.748;8.728;2024-02-21T16:46:09;1.43;;;0.97;;
12232;SDS011;6179;51.748;8.728;2024-02-21T16:52:09;0.90;;;0.90;;
12232;SDS011;6179;51.748;8.728;2024-02-21T16:58:10;8.70;;;2.93;;
12232;SDS011;6179;51.748;8.728;2024-02-21T17:04:11;12.17;;;1.20;;
12232;SDS011;6179;51.748;8.728;2024-02-21T17:10:14;11.63;;;1.40;;
12232;SDS011;6179;51.748;8.728;2024-02-21T17:16:14;8.57;;;1.60;;
12232;SDS011;6179;51.748;8.728;2024-02-21T17:22:15;0.90;;;0.90;;
12232;SDS011;6179;51.748;8.728;2024-02-21T17:28:16;7.13;;;1.20;;
12232;SDS011;6179;51.748;8.728;2024-02-21T17:34:16;4.63;;;0.87;;
12232;SDS011;6179;51.748;8.728;2024-02-21T17:40:17;5.63;;;1.30;;
12232;SDS011;6179;51.748;8.728;2024-02-21T17:46:17;3.13;;;0.87;;
12232;SDS011;6179;51.748;8.728;2024-02-21T17:52:19;2.33;;;0.60;;
12232;SDS011;6179;51.748;8.728;2024-02-21T17:58:20;1.23;;;0.60;;
12232;SDS011;6179;51.748;8.728;2024-02-21T18:04:21;2.60;;;0.93;;
12232;SDS011;6179;51.748;8.728;2024-02-21T18:10:23;1.23;;;0.83;;
12232;SDS011;6179;51.748;8.728;2024-02-21T18:16:23;8.47;;;0.70;;
12232;SDS011;6179;51.748;8.728;2024-02-21T18:22:24;4.27;;;1.10;;
12232;SDS011;6179;51.748;8.728;2024-02-21T18:28:26;4.10;;;0.70;;
12232;SDS011;6179;51.748;8.728;2024-02-21T18:34:27;5.63;;;0.80;;
12232;SDS011;6179;51.748;8.728;2024-02-21T18:40:28;3.43;;;0.60;;
12232;SDS011;6179;51.748;8.728;2024-02-21T18:46:29;10.60;;;0.90;;
12232;SDS011;6179;51.748;8.728;2024-02-21T18:52:29;3.97;;;1.00;;
12232;SDS011;6179;51.748;8.728;2024-02-21T18:58:30;2.30;;;0.87;;
12232;SDS011;6179;51.748;8.728;2024-02-21T19:04:31;2.30;;;0.70;;
12232;SDS011;6179;51.748;8.728;2024-02-21T19:10:32;2.60;;;1.00;;
12232;SDS011;6179;51.748;8.728;2024-02-21T19:16:32;3.90;;;1.17;;
12232;SDS011;6179;51.748;8.728;2024-02-21T19:22:33;5.23;;;1.10;;
12232;SDS011;6179;51.748;8.728;2024-02-21T19:28:34;2.60;;;1.00;;
12232;SDS011;6179;51.748;8.728;2024-02-21T19:34:35;4.87;;;1.10;;
12232;SDS011;6179;51.748;8.728;2024-02-21T19:40:36;3.80;;;0.83;;
12232;SDS011;6179;51.748;8.728;2024-02-21T19:46:36;5.17;;;0.97;;
12232;SDS011;6179;51.748;8.728;2024-02-21T19:52:37;13.33;;;1.43;;
12232;SDS011;6179;51.748;8.728;2024-02-21T19:58:39;5.90;;;1.30;;
12232;SDS011;6179;51.748;8.728;2024-02-21T20:04:40;4.00;;;1.17;;
12232;SDS011;6179;51.748;8.728;2024-02-21T20:10:40;4.10;;;1.17;;
12232;SDS011;6179;51.748;8.728;2024-02-21T20:16:41;5.10;;;1.90;;
12232;SDS011;6179;51.748;8.728;2024-02-21T20:22:44;1.17;;;0.80;;
12232;SDS011;6179;51.748;8.728;2024-02-21T20:28:44;2.57;;;1.17;;
12232;SDS011;6179;51.748;8.728;2024-02-21T20:34:45;3.23;;;0.60;;
12232;SDS011;6179;51.748;8.728;2024-02-21T20:40:47;0.77;;;0.77;;
12232;SDS011;6179;51.748;8.728;2024-02-21T20:46:48;2.83;;;0.50;;
12232;SDS011;6179;51.748;8.728;2024-02-21T20:52:48;0.60;;;0.50;;
12232;SDS011;6179;51.748;8.728;2024-02-21T20:58:49;0.70;;;0.40;;
12232;SDS011;6179;51.748;8.728;2024-02-21T21:04:51;4.43;;;0.50;;
12232;SDS011;6179;51.748;8.728;2024-02-21T21:10:51;4.80;;;0.60;;
12232;SDS011;6179;51.748;8.728;2024-02-21T21:16:54;1.63;;;0.47;;
12232;SDS011;6179;51.748;8.728;2024-02-21T21:22:55;3.17;;;0.60;;
12232;SDS011;6179;51.748;8.728;2024-02-21T21:28:55;1.27;;;0.60;;
12232;SDS011;6179;51.748;8.728;2024-02-21T21:34:57;0.60;;;0.60;;
12232;SDS011;6179;51.748;8.728;2024-02-21T21:40:58;1.70;;;0.90;;
12232;SDS011;6179;51.748;8.728;2024-02-21T21:46:59;0.87;;;0.83;;
12232;SDS011;6179;51.748;8.728;2024-02-21T21:52:59;2.70;;;0.80;;
12232;SDS011;6179;51.748;8.728;2024-02-21T21:59:00;1.47;;;0.80;;
12232;SDS011;6179;51.748;8.728;2024-02-21T22:05:04;2.47;;;0.50;;
12232;SDS011;6179;51.748;8.728;2024-02-21T22:11:05;2.40;;;0.50;;
12232;SDS011;6179;51.748;8.728;2024-02-21T22:17:08;3.20;;;0.60;;
12232;SDS011;6179;51.748;8.728;2024-02-21T22:23:09;0.67;;;0.40;;
12232;SDS011;6179;51.748;8.728;2024-02-21T22:29:09;4.40;;;0.90;;
12232;SDS011;6179;51.748;8.728;2024-02-21T22:35:11;0.50;;;0.50;;
12232;SDS011;6179;51.748;8.728;2024-02-21T22:41:12;2.50;;;0.60;;
12232;SDS011;6179;51.748;8.728;2024-02-21T22:47:13;1.07;;;0.50;;
12232;SDS011;6179;51.748;8.728;2024-02-21T22:53:14;1.33;;;0.60;;
12232;SDS011;6179;51.748;8.728;2024-02-21T22:59:14;0.50;;;0.50;;
12232;SDS011;6179;51.748;8.728;2024-02-21T23:05:15;0.83;;;0.83;;
12232;SDS011;6179;51.748;8.728;2024-02-21T23:11:15;1.50;;;0.80;;
12232;SDS011;6179;51.748;8.728;2024-02-21T23:17:16;2.23;;;0.50;;
12232;SDS011;6179;51.748;8.728;2024-02-21T23:23:17;0.60;;;0.60;;
12232;SDS011;6179;51.748;8.728;2024-02-21T23:29:18;1.67;;;0.60;;
12232;SDS011;6179;51.748;8.728;2024-02-21T23:35:18;2.27;;;0.40;;
12232;SDS011;6179;51.748;8.728;2024-02-21T23:41:19;0.60;;;0.40;;
12232;SDS011;6179;51.748;8.728;2024-02-21T23:47:20;1.50;;;0.50;;
12232;SDS011;6179;51.748;8.728;2024-02-21T23:53:23;3.07;;;0.50;;
12232;SDS011;6179;51.748;8.728;2024-02-21T23:59:24;5.00;;;0.57;;
